Time;durP1;ratioP1;P1;durP2;ratioP2;P2;SDS_P1;SDS_P2;PMS_P1;PMS_P2;Temp;Humidity;BMP_temperature;BMP_pressure;BME280_temperature;BME280_humidity;BME280_pressure;Samples;Min_cycle;Max_cycle;Signal;HPM_P1;HPM_P2
2024/02/12 00:00:18;;;;;;;12.23;9.47;;;5.90;99.90;;;;;;5030421;28;20482;-58
2024/02/12 00:02:47;;;;;;;10.30;8.70;;;5.90;99.90;;;;;;5032485;28;20495;-58
2024/02/12 00:05:16;;;;;;;12.80;9.00;;;5.90;99.90;;;;;;5032153;28;20808;-59
2024/02/12 00:07:44;;;;;;;12.30;9.23;;;5.90;99.90;;;;;;5031492;28;20471;-58
2024/02/12 00:10:12;;;;;;;11.47;9.20;;;5.90;99.90;;;;;;5030678;28;20467;-59
2024/02/12 00:12:40;;;;;;;10.47;8.70;;;5.90;99.90;;;;;;5030622;28;20489;-59
2024/02/12 00:15:12;;;;;;;9.83;8.80;;;5.90;99.90;;;;;;5029714;28;20467;-59
2024/02/12 00:17:40;;;;;;;12.03;9.17;;;5.90;99.90;;;;;;5028935;28;20467;-59
2024/02/12 00:20:11;;;;;;;12.13;9.50;;;5.90;99.90;;;;;;5028316;28;20470;-58
2024/02/12 00:22:41;;;;;;;10.47;8.37;;;5.90;99.90;;;;;;5028954;28;20581;-59
2024/02/12 00:25:11;;;;;;;12.10;9.13;;;5.90;99.90;;;;;;5032414;28;20499;-59
2024/02/12 00:27:40;;;;;;;12.47;9.53;;;5.90;99.90;;;;;;5027629;28;20566;-64
2024/02/12 00:30:09;;;;;;;13.50;10.37;;;5.90;99.90;;;;;;5029774;28;20640;-59
2024/02/12 00:32:38;;;;;;;10.93;9.80;;;5.90;99.90;;;;;;5027693;28;20605;-59
2024/02/12 00:35:08;;;;;;;12.93;10.53;;;5.90;99.90;;;;;;5035144;28;20462;-59
2024/02/12 00:37:36;;;;;;;11.67;9.33;;;5.90;99.90;;;;;;5026462;28;20599;-59
2024/02/12 00:40:08;;;;;;;13.67;10.63;;;5.90;99.90;;;;;;5030960;28;21354;-59
2024/02/12 00:42:38;;;;;;;11.40;9.53;;;5.90;99.90;;;;;;5031297;28;20489;-59
2024/02/12 00:45:08;;;;;;;11.10;9.83;;;5.90;99.90;;;;;;5029664;28;21042;-59
2024/02/12 00:47:37;;;;;;;12.13;9.40;;;5.90;99.90;;;;;;5035211;28;20569;-59
2024/02/12 00:50:08;;;;;;;12.20;9.57;;;5.90;99.90;;;;;;5020496;28;20467;-59
2024/02/12 00:52:37;;;;;;;12.60;10.20;;;6.00;99.90;;;;;;5032584;28;20475;-59
2024/02/12 00:55:07;;;;;;;11.17;9.20;;;6.00;99.90;;;;;;5030377;28;20908;-59
2024/02/12 00:57:35;;;;;;;11.13;9.17;;;6.00;99.90;;;;;;5026773;28;20486;-59
2024/02/12 01:00:12;;;;;;;12.90;10.00;;;6.00;99.90;;;;;;5032132;28;21389;-59
2024/02/12 01:02:42;;;;;;;12.17;9.50;;;6.00;99.90;;;;;;5034665;28;20514;-59
2024/02/12 01:05:10;;;;;;;14.60;10.90;;;6.00;99.90;;;;;;5029819;28;20490;-59
2024/02/12 01:07:40;;;;;;;16.37;11.93;;;6.00;99.90;;;;;;5024270;28;20854;-58
2024/02/12 01:10:09;;;;;;;15.93;12.40;;;6.00;99.90;;;;;;5034585;28;21044;-59
2024/02/12 01:12:39;;;;;;;17.37;11.97;;;6.00;99.90;;;;;;5027531;28;20517;-59
2024/02/12 01:15:09;;;;;;;14.73;11.57;;;6.00;99.90;;;;;;5035385;28;20463;-58
2024/02/12 01:17:38;;;;;;;14.13;11.03;;;6.00;99.90;;;;;;5028523;28;20487;-58
2024/02/12 01:20:16;;;;;;;13.00;10.23;;;6.00;99.90;;;;;;5033509;28;20470;-58
2024/02/12 01:22:44;;;;;;;15.00;11.67;;;6.00;99.90;;;;;;5032876;28;20478;-59
2024/02/12 01:25:13;;;;;;;15.17;10.50;;;6.00;99.90;;;;;;5032124;28;20531;-59
2024/02/12 01:27:41;;;;;;;13.07;10.93;;;6.00;99.90;;;;;;5026213;28;20497;-58
2024/02/12 01:30:10;;;;;;;13.03;10.20;;;6.00;99.90;;;;;;5034920;28;20477;-59
2024/02/12 01:32:37;;;;;;;13.23;9.70;;;6.00;99.90;;;;;;5026393;28;20482;-59
2024/02/12 01:35:06;;;;;;;13.23;11.60;;;6.00;99.90;;;;;;5026458;28;20910;-58
2024/02/12 01:37:36;;;;;;;12.53;10.00;;;6.00;99.90;;;;;;5032504;28;20495;-59
2024/02/12 01:40:08;;;;;;;12.47;10.87;;;6.00;99.90;;;;;;5027448;28;20466;-59
2024/02/12 01:42:37;;;;;;;12.60;10.50;;;6.00;99.90;;;;;;5029049;28;20493;-59
2024/02/12 01:45:11;;;;;;;14.17;10.47;;;6.00;99.90;;;;;;5034148;28;20491;-58
2024/02/12 01:47:42;;;;;;;12.33;10.40;;;6.00;99.90;;;;;;5033297;28;21062;-59
2024/02/12 01:50:12;;;;;;;13.20;10.83;;;6.00;99.90;;;;;;5033835;28;20474;-58
2024/02/12 01:52:48;;;;;;;14.80;10.80;;;6.00;99.90;;;;;;5026577;28;20576;-58
2024/02/12 01:55:20;;;;;;;16.03;10.87;;;6.00;99.90;;;;;;5027375;28;20477;-59
2024/02/12 01:57:50;;;;;;;11.67;10.10;;;6.10;99.90;;;;;;5036659;28;20474;-59
2024/02/12 02:00:21;;;;;;;12.03;9.80;;;6.00;99.90;;;;;;5029325;28;20540;-58
2024/02/12 02:02:51;;;;;;;13.10;10.83;;;6.10;99.90;;;;;;5031156;28;20604;-59
2024/02/12 02:05:19;;;;;;;13.87;10.50;;;6.10;99.90;;;;;;5031147;28;20982;-59
2024/02/12 02:07:52;;;;;;;11.20;9.70;;;6.10;99.90;;;;;;5031603;28;20485;-58
2024/02/12 02:10:23;;;;;;;13.17;10.17;;;6.10;99.90;;;;;;5036289;28;20477;-57
2024/02/12 02:12:53;;;;;;;13.63;10.23;;;6.10;99.90;;;;;;5033488;28;20487;-58
2024/02/12 02:15:21;;;;;;;11.97;9.60;;;6.10;99.90;;;;;;5033154;28;20967;-59
2024/02/12 02:17:49;;;;;;;13.50;9.80;;;6.10;99.90;;;;;;5025334;28;20474;-58
2024/02/12 02:20:23;;;;;;;12.60;9.87;;;6.10;99.90;;;;;;5033461;28;20494;-58
2024/02/12 02:22:54;;;;;;;14.73;11.03;;;6.10;99.90;;;;;;5037235;28;20486;-59
2024/02/12 02:25:24;;;;;;;13.00;10.10;;;6.10;99.90;;;;;;5034125;28;20601;-59
2024/02/12 02:27:52;;;;;;;12.43;10.27;;;6.10;99.90;;;;;;5035769;28;20467;-58
2024/02/12 02:30:21;;;;;;;12.07;9.83;;;6.10;99.90;;;;;;5030221;28;20549;-58
2024/02/12 02:32:50;;;;;;;14.67;10.20;;;6.20;99.90;;;;;;5029380;28;20490;-59
2024/02/12 02:35:18;;;;;;;13.33;10.40;;;6.10;99.90;;;;;;5033810;28;20458;-59
2024/02/12 02:37:46;;;;;;;14.53;10.13;;;6.20;99.90;;;;;;5037687;28;20562;-58
2024/02/12 02:40:14;;;;;;;16.43;11.57;;;6.20;99.90;;;;;;5037235;28;20501;-59
2024/02/12 02:42:46;;;;;;;16.00;11.57;;;6.20;99.90;;;;;;5035206;28;20567;-59
2024/02/12 02:45:15;;;;;;;14.23;10.77;;;6.20;99.90;;;;;;5033866;28;20787;-59
2024/02/12 02:47:43;;;;;;;14.90;11.00;;;6.20;99.90;;;;;;5034040;28;20855;-58
2024/02/12 02:50:11;;;;;;;14.63;11.10;;;6.20;99.90;;;;;;5034562;28;20477;-59
2024/02/12 02:52:40;;;;;;;17.33;11.43;;;6.20;99.90;;;;;;5032887;28;20482;-59
2024/02/12 02:55:11;;;;;;;16.03;11.80;;;6.20;99.90;;;;;;5034631;28;21042;-58
2024/02/12 02:57:39;;;;;;;16.37;11.73;;;6.20;99.90;;;;;;5035960;28;20488;-58
2024/02/12 03:00:10;;;;;;;17.47;11.90;;;6.20;99.90;;;;;;5037851;28;20585;-60
2024/02/12 03:02:38;;;;;;;16.10;11.63;;;6.20;99.90;;;;;;5030382;28;21081;-59
2024/02/12 03:05:11;;;;;;;15.20;11.37;;;6.30;99.90;;;;;;5037281;28;20497;-60
2024/02/12 03:07:43;;;;;;;17.67;11.07;;;6.30;99.90;;;;;;5035350;28;20489;-60
2024/02/12 03:10:12;;;;;;;17.73;11.53;;;6.30;99.90;;;;;;5035141;28;20525;-59
2024/02/12 03:12:41;;;;;;;15.93;11.00;;;6.30;99.90;;;;;;5037051;28;20475;-60
2024/02/12 03:15:14;;;;;;;16.80;11.93;;;6.30;99.90;;;;;;5032732;28;20471;-59
2024/02/12 03:17:43;;;;;;;15.40;11.27;;;6.30;99.90;;;;;;5030144;28;20609;-59
2024/02/12 03:20:13;;;;;;;15.33;10.47;;;6.30;99.90;;;;;;5037211;28;20466;-59
2024/02/12 03:22:42;;;;;;;16.20;12.03;;;6.30;99.90;;;;;;5033226;28;21005;-60
2024/02/12 03:25:12;;;;;;;18.20;11.77;;;6.30;99.90;;;;;;5033933;28;20526;-59
2024/02/12 03:27:40;;;;;;;14.93;10.37;;;6.30;99.90;;;;;;5037911;28;20585;-59
2024/02/12 03:30:11;;;;;;;16.57;11.23;;;6.30;99.90;;;;;;5037416;28;20467;-58
2024/02/12 03:32:39;;;;;;;17.23;11.50;;;6.30;99.90;;;;;;5032353;28;20852;-59
2024/02/12 03:35:08;;;;;;;16.17;11.20;;;6.40;99.90;;;;;;5032795;28;20471;-59
2024/02/12 03:37:36;;;;;;;15.47;10.70;;;6.40;99.90;;;;;;5034590;28;20501;-59
2024/02/12 03:40:10;;;;;;;15.00;10.50;;;6.30;99.90;;;;;;5037437;28;20475;-59
2024/02/12 03:42:38;;;;;;;17.20;11.00;;;6.40;99.90;;;;;;5032832;28;20483;-59
2024/02/12 03:45:07;;;;;;;16.57;10.93;;;6.30;99.90;;;;;;5027383;28;21251;-59
2024/02/12 03:47:39;;;;;;;14.60;10.80;;;6.40;99.90;;;;;;5037278;28;20571;-59
2024/02/12 04:01:13;;;;;;;15.30;11.03;;;6.40;99.90;;;;;;5032588;28;21020;-58
2024/02/12 04:03:42;;;;;;;14.00;10.57;;;6.40;99.90;;;;;;5037186;28;20494;-59
2024/02/12 04:06:12;;;;;;;13.70;10.60;;;6.40;99.90;;;;;;5036218;28;20519;-59
2024/02/12 04:08:41;;;;;;;16.50;11.10;;;6.40;99.90;;;;;;5032631;28;20481;-59
2024/02/12 04:11:10;;;;;;;16.50;11.83;;;6.50;99.90;;;;;;5030800;28;20657;-57
2024/02/12 04:13:38;;;;;;;12.53;9.23;;;6.50;99.90;;;;;;5036243;28;20532;-58
2024/02/12 04:16:12;;;;;;;15.67;11.10;;;6.50;99.90;;;;;;5033937;28;20578;-57
2024/02/12 04:18:42;;;;;;;13.83;10.57;;;6.50;99.90;;;;;;5030065;28;20474;-58
2024/02/12 04:21:20;;;;;;;14.83;10.93;;;6.50;99.90;;;;;;5035753;28;20862;-58
2024/02/12 04:23:49;;;;;;;15.20;10.47;;;6.50;99.90;;;;;;5030396;28;20517;-58
2024/02/12 04:26:17;;;;;;;13.97;10.40;;;6.50;99.90;;;;;;5028816;28;20490;-58
2024/02/12 04:28:46;;;;;;;16.37;11.03;;;6.50;99.90;;;;;;5030279;28;20528;-58
2024/02/12 04:31:14;;;;;;;14.67;10.10;;;6.50;99.90;;;;;;5037296;28;20499;-58
2024/02/12 04:33:44;;;;;;;18.87;13.37;;;6.50;99.90;;;;;;5031341;28;20601;-58
2024/02/12 04:36:14;;;;;;;14.80;10.17;;;6.50;99.90;;;;;;5028336;28;20486;-60
2024/02/12 04:38:42;;;;;;;15.87;11.27;;;6.50;99.90;;;;;;5027828;28;20475;-58
2024/02/12 04:41:12;;;;;;;18.00;11.97;;;6.50;99.90;;;;;;5029973;28;20485;-58
2024/02/12 04:43:41;;;;;;;16.70;11.20;;;6.50;99.90;;;;;;5031732;28;20469;-58
2024/02/12 04:46:10;;;;;;;15.50;10.80;;;6.60;99.90;;;;;;5034287;28;20524;-58
2024/02/12 04:48:40;;;;;;;18.00;11.97;;;6.60;99.90;;;;;;5026353;28;20556;-59
2024/02/12 04:51:11;;;;;;;17.87;12.00;;;6.60;99.90;;;;;;5024537;28;20478;-58
2024/02/12 04:53:39;;;;;;;18.17;10.50;;;6.60;99.90;;;;;;5033712;28;21005;-59
2024/02/12 04:56:08;;;;;;;20.97;11.60;;;6.60;99.90;;;;;;5024040;28;21855;-59
2024/02/12 04:58:37;;;;;;;17.93;12.37;;;6.60;99.90;;;;;;5029123;28;20560;-59
2024/02/12 05:01:07;;;;;;;20.63;13.60;;;6.60;99.90;;;;;;5029527;28;21239;-58
2024/02/12 05:03:36;;;;;;;19.27;11.43;;;6.60;99.90;;;;;;5030399;28;20474;-59
2024/02/12 05:06:05;;;;;;;18.53;13.03;;;6.60;99.90;;;;;;5032620;28;20498;-59
2024/02/12 05:08:34;;;;;;;21.17;12.23;;;6.60;99.90;;;;;;5035794;28;20508;-58
2024/02/12 05:11:03;;;;;;;18.73;11.43;;;6.60;99.90;;;;;;5034795;28;20888;-57
2024/02/12 05:13:32;;;;;;;22.47;12.50;;;6.70;99.90;;;;;;5026603;28;20481;-59
2024/02/12 05:16:01;;;;;;;18.17;12.70;;;6.70;99.90;;;;;;5030431;28;20487;-58
2024/02/12 05:24:02;;;;;;;19.93;12.60;;;6.70;99.90;;;;;;5035943;28;20471;-59
2024/02/12 05:26:30;;;;;;;18.57;13.33;;;6.70;99.90;;;;;;5029968;28;21373;-58
2024/02/12 05:28:59;;;;;;;22.20;13.43;;;6.70;99.90;;;;;;5025679;28;20665;-58
2024/02/12 05:31:27;;;;;;;19.50;13.37;;;6.70;99.90;;;;;;5030495;28;20518;-58
2024/02/12 05:33:55;;;;;;;19.03;12.80;;;6.70;99.90;;;;;;5038344;28;20466;-58
2024/02/12 05:36:24;;;;;;;22.33;13.20;;;6.70;99.90;;;;;;5036812;28;20495;-58
2024/02/12 05:38:52;;;;;;;23.17;13.00;;;6.80;99.90;;;;;;5038337;28;20999;-58
2024/02/12 05:41:21;;;;;;;23.80;16.13;;;6.80;99.90;;;;;;5037672;28;20475;-58
2024/02/12 05:43:49;;;;;;;24.40;14.87;;;6.80;99.90;;;;;;5037765;28;20472;-58
2024/02/12 05:46:17;;;;;;;25.43;14.87;;;6.80;99.90;;;;;;5033810;28;20508;-58
2024/02/12 05:48:45;;;;;;;22.13;14.60;;;6.80;99.90;;;;;;5037355;28;20588;-57
2024/02/12 05:51:13;;;;;;;27.50;15.40;;;6.80;99.90;;;;;;5037841;28;20494;-58
2024/02/12 05:53:41;;;;;;;23.93;15.37;;;6.90;99.90;;;;;;5031723;28;20553;-57
2024/02/12 05:56:09;;;;;;;25.00;15.90;;;6.80;99.90;;;;;;5038037;28;20498;-58
2024/02/12 05:58:39;;;;;;;27.83;16.03;;;6.80;99.90;;;;;;5035879;28;20475;-58
2024/02/12 06:01:07;;;;;;;27.03;16.40;;;6.90;99.90;;;;;;5040927;28;20923;-58
2024/02/12 06:03:35;;;;;;;27.83;17.33;;;6.90;99.90;;;;;;5030193;28;20563;-58
2024/02/12 06:06:03;;;;;;;27.57;16.77;;;6.90;99.90;;;;;;5035903;28;20565;-58
2024/02/12 06:08:32;;;;;;;26.33;17.10;;;6.90;99.90;;;;;;5028617;28;20511;-57
2024/02/12 06:11:00;;;;;;;31.67;17.00;;;6.90;99.90;;;;;;5026035;28;20995;-58
2024/02/12 06:13:28;;;;;;;29.03;17.47;;;6.90;99.90;;;;;;5034807;28;20467;-58
2024/02/12 06:15:57;;;;;;;29.00;18.00;;;7.00;99.90;;;;;;5031008;28;21092;-58
2024/02/12 06:18:25;;;;;;;33.97;19.47;;;6.90;99.90;;;;;;5029604;28;20604;-58
2024/02/12 06:20:54;;;;;;;31.63;18.00;;;6.90;99.90;;;;;;5024449;28;20886;-58
2024/02/12 06:23:22;;;;;;;31.40;18.40;;;6.90;99.90;;;;;;5030535;28;20474;-58
2024/02/12 06:25:49;;;;;;;33.67;18.93;;;7.00;99.90;;;;;;5022571;28;20486;-58
2024/02/12 06:28:18;;;;;;;32.30;18.40;;;7.00;99.90;;;;;;5027990;28;20555;-58
2024/02/12 06:30:46;;;;;;;37.57;19.63;;;7.00;99.90;;;;;;5032554;28;20474;-58
2024/02/12 06:33:15;;;;;;;29.43;17.83;;;7.00;99.90;;;;;;5035183;28;20844;-59
2024/02/12 06:35:43;;;;;;;34.17;18.70;;;7.00;99.90;;;;;;5036516;28;20578;-59
2024/02/12 06:38:11;;;;;;;30.40;17.60;;;6.90;99.90;;;;;;5033742;28;20570;-59
2024/02/12 06:40:39;;;;;;;31.93;19.57;;;6.90;99.90;;;;;;5033382;28;20480;-59
2024/02/12 06:43:07;;;;;;;29.50;19.30;;;7.00;99.90;;;;;;5034129;28;20562;-59
2024/02/12 06:45:36;;;;;;;30.63;18.83;;;7.00;99.90;;;;;;5033413;28;20470;-58
2024/02/12 06:48:05;;;;;;;34.70;18.33;;;7.00;99.90;;;;;;5033664;28;20502;-58
2024/02/12 06:50:34;;;;;;;33.20;20.23;;;7.00;99.90;;;;;;5037158;28;20477;-58
2024/02/12 06:53:03;;;;;;;29.87;18.20;;;7.00;99.90;;;;;;5039278;28;20474;-58
2024/02/12 06:55:31;;;;;;;32.63;18.83;;;7.00;99.90;;;;;;5034488;28;20478;-59
2024/02/12 06:58:00;;;;;;;36.23;19.50;;;7.00;99.90;;;;;;5030745;28;20470;-58
2024/02/12 07:00:28;;;;;;;29.10;17.67;;;7.00;99.90;;;;;;5033055;28;20857;-57
2024/02/12 07:02:56;;;;;;;34.90;17.70;;;7.00;99.90;;;;;;5037122;28;20478;-58
2024/02/12 07:05:25;;;;;;;30.30;17.97;;;7.00;99.90;;;;;;5035934;28;20473;-58
2024/02/12 07:07:55;;;;;;;35.07;17.60;;;7.00;99.90;;;;;;5028725;28;20602;-58
2024/02/12 07:10:24;;;;;;;29.93;18.70;;;7.10;99.90;;;;;;5032836;28;20473;-58
2024/02/12 07:12:52;;;;;;;27.30;17.37;;;7.10;99.90;;;;;;5033848;28;20514;-59
2024/02/12 07:15:20;;;;;;;28.90;16.90;;;7.10;99.90;;;;;;5034650;28;20541;-59
2024/02/12 07:17:48;;;;;;;31.10;17.87;;;7.10;99.90;;;;;;5035128;28;20495;-59
2024/02/12 07:20:16;;;;;;;29.77;17.13;;;7.10;99.90;;;;;;5029530;28;20962;-58
2024/02/12 07:22:44;;;;;;;32.90;18.03;;;7.10;99.90;;;;;;5032859;28;20859;-59
2024/02/12 07:25:14;;;;;;;29.53;16.83;;;7.10;99.90;;;;;;5033944;28;20474;-58
2024/02/12 07:27:43;;;;;;;26.90;16.50;;;7.10;99.90;;;;;;5028225;28;20774;-58
2024/02/12 07:30:11;;;;;;;26.70;15.77;;;7.10;99.90;;;;;;5035614;28;20482;-58
2024/02/12 07:32:40;;;;;;;25.83;15.83;;;7.10;99.90;;;;;;5036204;28;20885;-58
2024/02/12 07:35:09;;;;;;;24.90;14.10;;;7.10;99.90;;;;;;5038112;28;20502;-61
2024/02/12 07:37:38;;;;;;;26.20;15.70;;;7.20;99.90;;;;;;5033508;28;20553;-57
2024/02/12 07:40:10;;;;;;;24.17;14.97;;;7.20;99.90;;;;;;5029459;28;21010;-58
2024/02/12 07:42:40;;;;;;;23.80;14.60;;;7.20;99.90;;;;;;5031105;28;20502;-58
2024/02/12 07:45:10;;;;;;;27.43;15.30;;;7.20;99.90;;;;;;5032222;28;20467;-58
2024/02/12 07:47:39;;;;;;;20.67;12.60;;;7.20;99.90;;;;;;5034060;28;20497;-58
2024/02/12 07:50:09;;;;;;;24.00;13.27;;;7.20;99.90;;;;;;5035157;28;20466;-58
2024/02/12 07:52:37;;;;;;;20.63;12.03;;;7.20;99.90;;;;;;5037762;28;20480;-60
2024/02/12 07:55:09;;;;;;;19.80;12.17;;;7.20;99.90;;;;;;5034715;28;20462;-58
2024/02/12 07:57:37;;;;;;;19.83;12.30;;;7.20;99.90;;;;;;5034309;28;20547;-58
2024/02/12 08:00:14;;;;;;;18.17;12.63;;;7.20;99.90;;;;;;5034932;28;20562;-58
2024/02/12 08:02:44;;;;;;;18.10;12.60;;;7.30;99.90;;;;;;5034600;28;20503;-58
2024/02/12 08:05:12;;;;;;;18.20;11.60;;;7.30;99.90;;;;;;5037329;28;20466;-58
2024/02/12 08:07:40;;;;;;;16.77;10.93;;;7.30;99.90;;;;;;5033530;28;20499;-58
2024/02/12 08:10:28;;;;;;;15.03;10.73;;;7.30;99.90;;;;;;5034609;28;21379;-58
2024/02/12 08:12:56;;;;;;;20.83;11.70;;;7.30;99.90;;;;;;5036501;28;20549;-58
2024/02/12 08:15:25;;;;;;;19.67;11.93;;;7.30;99.90;;;;;;5034547;28;20478;-58
2024/02/12 08:17:54;;;;;;;16.27;11.80;;;7.30;99.90;;;;;;5034491;28;20474;-58
2024/02/12 08:20:24;;;;;;;16.90;11.03;;;7.40;99.90;;;;;;5036043;28;20478;-58
2024/02/12 08:22:54;;;;;;;16.20;10.43;;;7.40;99.90;;;;;;5037907;28;20488;-58
2024/02/12 08:25:22;;;;;;;15.07;9.60;;;7.40;99.90;;;;;;5035843;28;20483;-57
2024/02/12 08:27:50;;;;;;;15.87;10.10;;;7.40;99.90;;;;;;5034626;28;20486;-58
2024/02/12 08:30:19;;;;;;;17.37;10.03;;;7.50;99.90;;;;;;5035692;28;20467;-58
2024/02/12 08:32:49;;;;;;;15.87;10.40;;;7.50;99.90;;;;;;5033485;28;20518;-58
2024/02/12 08:35:17;;;;;;;21.10;11.17;;;7.50;99.90;;;;;;5037378;28;20878;-57
2024/02/12 08:37:46;;;;;;;16.67;9.97;;;7.50;99.90;;;;;;5036134;28;20547;-57
2024/02/12 08:40:16;;;;;;;16.17;10.20;;;7.50;99.90;;;;;;5036825;28;20562;-57
2024/02/12 08:42:45;;;;;;;15.53;10.40;;;7.50;99.90;;;;;;5036748;28;20511;-58
2024/02/12 08:45:14;;;;;;;16.83;10.47;;;7.60;99.90;;;;;;5035971;28;20470;-58
2024/02/12 08:47:42;;;;;;;16.87;11.20;;;7.60;99.90;;;;;;5033587;28;21128;-58
2024/02/12 08:50:12;;;;;;;15.30;10.97;;;7.60;99.90;;;;;;5035147;28;20473;-57
2024/02/12 08:52:40;;;;;;;16.47;11.30;;;7.60;99.90;;;;;;5038208;28;20478;-58
2024/02/12 08:55:10;;;;;;;19.30;11.50;;;7.60;99.90;;;;;;5037791;28;20478;-58
2024/02/12 08:57:41;;;;;;;18.47;12.00;;;7.60;99.90;;;;;;5037176;28;20938;-58
2024/02/12 09:00:11;;;;;;;18.00;12.20;;;7.60;99.90;;;;;;5036243;28;20525;-58
2024/02/12 09:02:40;;;;;;;17.23;12.27;;;7.60;99.90;;;;;;5031737;28;20584;-58
2024/02/12 09:05:10;;;;;;;16.60;11.00;;;7.60;99.90;;;;;;5038157;28;20854;-58
2024/02/12 09:07:40;;;;;;;16.90;11.90;;;7.60;99.90;;;;;;5038114;28;20938;-59
2024/02/12 09:10:11;;;;;;;21.57;12.33;;;7.60;99.90;;;;;;5033088;28;20581;-58
2024/02/12 09:12:40;;;;;;;17.90;12.37;;;7.60;99.90;;;;;;5037207;28;20990;-58
2024/02/12 09:15:21;;;;;;;16.37;11.50;;;7.70;99.90;;;;;;5034640;28;20468;-58
2024/02/12 09:17:50;;;;;;;18.33;12.33;;;7.70;99.90;;;;;;5035415;28;20490;-58
2024/02/12 09:20:19;;;;;;;16.33;11.67;;;7.70;99.90;;;;;;5037948;28;20471;-58
2024/02/12 09:22:49;;;;;;;18.63;12.70;;;7.60;99.90;;;;;;5036548;28;20489;-58
2024/02/12 09:25:17;;;;;;;17.10;12.03;;;7.70;99.90;;;;;;5035910;28;20477;-58
2024/02/12 09:27:46;;;;;;;20.97;12.03;;;7.70;99.90;;;;;;5037058;28;20478;-58
2024/02/12 09:30:17;;;;;;;20.80;11.80;;;7.70;99.90;;;;;;5035858;28;20490;-58
2024/02/12 09:32:47;;;;;;;20.93;12.50;;;7.80;99.90;;;;;;5036526;28;20510;-58
2024/02/12 09:35:17;;;;;;;16.40;10.60;;;7.80;99.90;;;;;;5038188;28;20478;-57
2024/02/12 09:37:49;;;;;;;20.23;12.27;;;7.80;99.90;;;;;;5038737;28;20911;-58
2024/02/12 09:40:21;;;;;;;19.10;12.43;;;7.80;99.90;;;;;;5035772;28;20471;-58
2024/02/12 09:42:50;;;;;;;17.57;11.80;;;7.80;99.90;;;;;;5035911;28;20509;-58
2024/02/12 09:45:19;;;;;;;21.43;12.90;;;7.80;99.90;;;;;;5037257;28;20919;-58
2024/02/12 09:47:47;;;;;;;16.77;11.37;;;7.80;99.90;;;;;;5037362;28;20467;-58
2024/02/12 09:50:16;;;;;;;22.30;12.90;;;7.90;99.90;;;;;;5036919;28;20531;-58
2024/02/12 09:52:45;;;;;;;15.93;11.80;;;7.90;99.90;;;;;;5036151;28;20478;-58
2024/02/12 09:55:17;;;;;;;17.43;11.10;;;7.90;99.90;;;;;;5037241;28;20479;-58
2024/02/12 09:57:47;;;;;;;20.23;11.23;;;7.90;99.90;;;;;;5037976;28;20483;-57
2024/02/12 10:00:19;;;;;;;16.17;10.97;;;7.90;99.90;;;;;;5024219;28;20554;-58
2024/02/12 10:02:47;;;;;;;17.57;11.17;;;8.00;99.90;;;;;;5030535;28;20906;-58
2024/02/12 10:05:20;;;;;;;19.00;12.10;;;8.00;99.90;;;;;;5034740;28;20903;-57
2024/02/12 10:07:48;;;;;;;16.50;11.10;;;8.00;99.90;;;;;;5031798;28;20475;-58
2024/02/12 10:10:18;;;;;;;15.57;11.43;;;8.00;99.90;;;;;;5032739;28;20485;-58
2024/02/12 10:12:51;;;;;;;18.00;11.03;;;8.10;99.90;;;;;;5031727;28;20564;-58
2024/02/12 10:15:20;;;;;;;13.93;10.47;;;8.00;99.90;;;;;;5031241;28;20482;-59
2024/02/12 10:17:49;;;;;;;15.73;10.87;;;8.00;99.90;;;;;;5034428;28;20583;-57
2024/02/12 10:20:18;;;;;;;17.67;11.00;;;8.00;99.90;;;;;;5033553;28;20499;-58
2024/02/12 10:22:46;;;;;;;15.93;11.03;;;8.10;99.90;;;;;;5033201;28;20483;-58
2024/02/12 10:25:15;;;;;;;12.83;9.37;;;8.10;99.90;;;;;;5038183;28;20635;-58
2024/02/12 10:27:44;;;;;;;16.00;10.43;;;8.10;99.90;;;;;;5039309;28;20478;-57
2024/02/12 10:30:17;;;;;;;16.23;10.13;;;8.10;99.90;;;;;;5035669;28;20578;-58
2024/02/12 10:32:49;;;;;;;14.20;9.63;;;8.20;99.90;;;;;;5040286;28;20616;-58
2024/02/12 10:35:22;;;;;;;16.50;10.87;;;8.10;99.90;;;;;;5036452;28;20481;-57
2024/02/12 10:37:52;;;;;;;19.60;12.27;;;8.10;99.90;;;;;;5036353;28;20506;-58
2024/02/12 10:40:29;;;;;;;15.37;10.90;;;8.10;99.90;;;;;;5034785;28;20540;-58
2024/02/12 10:43:03;;;;;;;18.70;11.23;;;8.20;99.90;;;;;;5033650;28;20569;-58
2024/02/12 10:45:31;;;;;;;17.53;10.90;;;8.20;99.90;;;;;;5035933;28;20507;-58
2024/02/12 10:47:59;;;;;;;15.17;10.97;;;8.20;99.90;;;;;;5035384;28;20864;-58
2024/02/12 10:50:27;;;;;;;17.67;11.40;;;8.20;99.90;;;;;;5034632;28;20526;-58
2024/02/12 10:52:56;;;;;;;16.90;12.30;;;8.20;99.90;;;;;;5035315;28;20481;-58
2024/02/12 10:55:24;;;;;;;17.87;11.93;;;8.20;99.90;;;;;;5037983;28;20971;-57
2024/02/12 10:57:52;;;;;;;17.60;11.70;;;8.20;99.90;;;;;;5039862;28;20467;-59
2024/02/12 11:00:25;;;;;;;18.67;11.97;;;8.20;99.90;;;;;;5037186;28;21017;-58
2024/02/12 11:02:55;;;;;;;20.00;12.80;;;8.20;99.90;;;;;;5035741;28;20486;-58
2024/02/12 11:05:23;;;;;;;18.23;12.33;;;8.20;99.90;;;;;;5036420;28;20546;-58
2024/02/12 11:08:03;;;;;;;18.10;12.57;;;8.20;99.90;;;;;;5040023;28;20528;-58
2024/02/12 11:10:34;;;;;;;19.40;12.00;;;8.20;99.90;;;;;;5035589;28;20602;-58
2024/02/12 11:13:05;;;;;;;19.87;12.53;;;8.30;99.90;;;;;;5034890;28;20552;-58
2024/02/12 11:15:36;;;;;;;15.87;12.30;;;8.30;99.90;;;;;;5031707;28;20506;-59
2024/02/12 11:18:13;;;;;;;21.20;13.50;;;8.30;99.90;;;;;;5036828;28;20467;-60
2024/02/12 11:20:49;;;;;;;18.50;12.67;;;8.30;99.90;;;;;;5035975;28;21354;-58
2024/02/12 11:23:22;;;;;;;19.37;14.20;;;8.30;99.90;;;;;;5033073;28;20462;-58
2024/02/12 11:25:50;;;;;;;19.27;13.90;;;8.30;99.90;;;;;;5034515;28;20489;-57
2024/02/12 11:28:24;;;;;;;20.37;13.53;;;8.40;99.90;;;;;;5036134;28;20486;-58
2024/02/12 11:30:54;;;;;;;19.23;13.70;;;8.40;99.90;;;;;;5034737;28;20479;-58
2024/02/12 11:33:24;;;;;;;18.17;13.37;;;8.40;99.90;;;;;;5038917;28;20963;-58
2024/02/12 11:36:05;;;;;;;17.47;12.87;;;8.40;99.90;;;;;;5037589;28;20563;-58
2024/02/12 11:38:35;;;;;;;21.57;14.43;;;8.40;99.90;;;;;;5037611;28;20502;-58
2024/02/12 11:41:05;;;;;;;19.33;14.13;;;8.40;99.90;;;;;;5036473;28;20509;-58
2024/02/12 11:43:33;;;;;;;17.93;14.43;;;8.40;99.90;;;;;;5034576;28;20482;-58
2024/02/12 11:46:03;;;;;;;21.30;14.80;;;8.50;99.90;;;;;;5032117;28;20483;-59
2024/02/12 11:48:31;;;;;;;23.57;15.27;;;8.50;99.90;;;;;;5034731;28;20463;-59
2024/02/12 11:50:59;;;;;;;17.97;14.27;;;8.50;99.90;;;;;;5033471;28;20556;-59
2024/02/12 11:53:28;;;;;;;23.30;15.50;;;8.60;99.90;;;;;;5036239;28;21840;-59
2024/02/12 11:55:58;;;;;;;21.13;14.50;;;8.60;99.90;;;;;;5036436;28;20575;-59
2024/02/12 11:58:26;;;;;;;20.77;15.87;;;8.60;99.90;;;;;;5034915;28;20470;-58
2024/02/12 12:00:56;;;;;;;23.43;15.97;;;8.60;99.90;;;;;;5037432;28;20481;-59
2024/02/12 12:03:27;;;;;;;20.53;16.00;;;8.60;99.90;;;;;;5035552;28;20570;-59
2024/02/12 12:05:56;;;;;;;24.00;16.00;;;8.60;99.90;;;;;;5036529;28;21217;-59
2024/02/12 12:08:25;;;;;;;23.97;16.27;;;8.60;99.90;;;;;;5036277;28;20485;-59
2024/02/12 12:10:53;;;;;;;23.00;16.87;;;8.60;99.90;;;;;;5035296;28;20483;-59
2024/02/12 12:13:21;;;;;;;23.67;15.97;;;8.60;99.90;;;;;;5036076;28;20499;-57
2024/02/12 12:15:50;;;;;;;23.73;16.63;;;8.60;99.90;;;;;;5031105;28;21001;-58
2024/02/12 12:18:18;;;;;;;24.17;15.60;;;8.60;99.90;;;;;;5032736;28;20886;-60
2024/02/12 12:20:47;;;;;;;25.23;17.47;;;8.60;99.90;;;;;;5036539;28;20524;-59
2024/02/12 12:23:15;;;;;;;22.97;15.80;;;8.60;99.90;;;;;;5030839;28;20478;-58
2024/02/12 12:25:44;;;;;;;26.47;18.50;;;8.50;99.90;;;;;;5032122;28;20491;-59
2024/02/12 12:28:12;;;;;;;22.17;16.40;;;8.50;99.90;;;;;;5035896;28;20517;-59
2024/02/12 12:30:40;;;;;;;22.40;16.50;;;8.50;99.90;;;;;;5036945;28;20594;-59
2024/02/12 12:33:08;;;;;;;24.23;16.50;;;8.50;99.90;;;;;;5037667;28;20562;-59
2024/02/12 12:35:37;;;;;;;26.00;17.23;;;8.50;99.90;;;;;;5034468;28;21134;-59
2024/02/12 12:38:09;;;;;;;25.20;17.77;;;8.50;99.90;;;;;;5036394;28;20558;-59
2024/02/12 12:40:38;;;;;;;29.33;18.73;;;8.50;99.90;;;;;;5037575;28;20556;-59
2024/02/12 12:43:08;;;;;;;26.97;18.30;;;8.50;99.90;;;;;;5035103;28;20560;-58
2024/02/12 12:45:39;;;;;;;25.47;17.33;;;8.50;99.90;;;;;;5028762;28;20577;-59
2024/02/12 12:48:09;;;;;;;23.67;17.27;;;8.50;99.90;;;;;;5037294;28;20577;-59
2024/02/12 12:50:37;;;;;;;24.00;17.27;;;8.60;99.90;;;;;;5032540;28;20633;-57
2024/02/12 12:53:25;;;;;;;24.97;17.50;;;8.60;99.90;;;;;;5037343;28;20466;-58
2024/02/12 12:55:53;;;;;;;25.60;16.87;;;8.50;99.90;;;;;;5036290;28;20505;-58
2024/02/12 12:58:21;;;;;;;24.83;17.40;;;8.50;99.90;;;;;;5034519;28;20499;-58
2024/02/12 13:00:49;;;;;;;26.50;18.10;;;8.50;99.90;;;;;;5035645;28;20638;-59
2024/02/12 13:03:18;;;;;;;24.00;18.17;;;8.60;99.90;;;;;;5035434;28;20521;-58
2024/02/12 13:05:46;;;;;;;26.00;17.80;;;8.50;99.90;;;;;;5032297;28;20507;-57